createdAt,value
2018-08-19T00:00:25.576Z,97.28
2018-08-19T00:02:59.255Z,97.60
2018-08-19T00:05:29.540Z,97.82
2018-08-19T00:07:59.785Z,97.83
2018-08-19T00:11:12.433Z,97.80
2018-08-19T00:13:42.633Z,97.56
2018-08-19T00:16:13.011Z,97.18
2018-08-19T00:18:43.211Z,97.66
2018-08-19T00:21:13.433Z,97.68
2018-08-19T00:23:49.664Z,97.58
2018-08-19T00:26:19.931Z,98.06
2018-08-19T00:28:50.092Z,98.30
2018-08-19T00:31:20.240Z,98.58
2018-08-19T00:33:50.370Z,98.57
2018-08-19T00:36:33.270Z,98.71
2018-08-19T00:39:04.053Z,98.93
2018-08-19T00:41:34.172Z,98.55
2018-08-19T00:44:04.486Z,98.92
2018-08-19T00:46:34.754Z,99.20
2018-08-19T00:49:04.898Z,99.28
2018-08-19T00:51:35.082Z,99.43
2018-08-19T00:54:05.384Z,99.67
2018-08-19T00:56:36.764Z,100.00
2018-08-19T00:59:09.356Z,99.78
2018-08-19T01:01:39.580Z,100.00
2018-08-19T01:04:11.099Z,99.93
2018-08-19T01:06:46.267Z,99.99
2018-08-19T01:09:16.587Z,100.00
2018-08-19T01:11:46.871Z,100.00
2018-08-19T01:14:17.180Z,100.00
2018-08-19T01:16:47.358Z,100.00
2018-08-19T01:19:18.645Z,100.00
2018-08-19T01:21:50.707Z,100.00
2018-08-19T01:24:21.250Z,100.00
2018-08-19T01:26:51.370Z,100.00
2018-08-19T01:29:35.881Z,100.00
2018-08-19T01:32:12.312Z,100.00
2018-08-19T01:34:45.621Z,100.00
2018-08-19T01:37:16.228Z,100.00
2018-08-19T01:39:46.416Z,100.00
2018-08-19T01:42:16.561Z,100.00
2018-08-19T01:44:46.671Z,100.00
2018-08-19T01:47:16.770Z,100.00
2018-08-19T01:49:46.996Z,100.00
2018-08-19T01:52:17.071Z,100.00
2018-08-19T01:54:47.219Z,100.00
2018-08-19T01:57:17.360Z,100.00
2018-08-19T01:59:47.512Z,100.00
2018-08-19T02:02:17.681Z,100.00
2018-08-19T02:04:52.906Z,100.00
2018-08-19T02:07:23.070Z,100.00
2018-08-19T02:10:02.712Z,100.00
2018-08-19T02:12:38.569Z,100.00
2018-08-19T02:15:10.284Z,100.00
2018-08-19T02:17:46.191Z,100.00
2018-08-19T02:20:16.339Z,100.00
2018-08-19T02:22:51.849Z,100.00
2018-08-19T02:25:21.992Z,100.00
2018-08-19T02:27:52.126Z,100.00
2018-08-19T02:30:22.288Z,100.00
2018-08-19T02:32:55.760Z,100.00
2018-08-19T02:35:25.969Z,100.00
2018-08-19T02:37:56.133Z,100.00
2018-08-19T02:40:30.741Z,100.00
2018-08-19T02:43:01.002Z,100.00
2018-08-19T02:45:31.227Z,100.00
2018-08-19T02:48:01.398Z,100.00
2018-08-19T02:50:31.528Z,100.00
2018-08-19T02:53:01.613Z,100.00
2018-08-19T02:55:31.874Z,100.00
2018-08-19T02:58:06.943Z,100.00
2018-08-19T03:00:37.017Z,100.00
2018-08-19T03:03:07.306Z,100.00
2018-08-19T03:05:38.492Z,100.00
2018-08-19T03:08:08.619Z,100.00
2018-08-19T03:10:38.831Z,100.00
2018-08-19T03:13:08.935Z,100.00
2018-08-19T03:15:39.102Z,100.00
2018-08-19T03:18:09.220Z,100.00
2018-08-19T03:20:39.490Z,100.00
2018-08-19T03:23:10.715Z,100.00
2018-08-19T03:25:40.805Z,100.00
2018-08-19T03:28:10.993Z,100.00
2018-08-19T03:30:47.979Z,100.00
2018-08-19T03:33:18.001Z,100.00
2018-08-19T03:35:48.112Z,100.00
2018-08-19T03:38:18.244Z,100.00
2018-08-19T03:40:48.357Z,100.00
2018-08-19T03:43:18.523Z,100.00
2018-08-19T03:45:48.627Z,100.00
2018-08-19T03:48:18.709Z,100.00
2018-08-19T03:50:48.810Z,100.00
2018-08-19T03:53:18.822Z,100.00
2018-08-19T03:55:48.946Z,100.00
2018-08-19T03:58:19.062Z,100.00
2018-08-19T04:00:49.204Z,100.00
2018-08-19T04:03:25.141Z,100.00
2018-08-19T04:05:58.835Z,100.00
2018-08-19T04:08:40.284Z,100.00
2018-08-19T04:11:10.403Z,100.00
2018-08-19T04:13:41.594Z,100.00
2018-08-19T04:16:12.747Z,100.00
2018-08-19T04:18:45.265Z,100.00
2018-08-19T04:21:16.735Z,100.00
2018-08-19T04:23:49.451Z,100.00
2018-08-19T04:26:19.644Z,100.00
2018-08-19T04:28:49.780Z,100.00
2018-08-19T04:31:24.096Z,100.00
2018-08-19T04:33:56.327Z,100.00
2018-08-19T04:36:26.629Z,100.00
2018-08-19T04:38:57.266Z,100.00
2018-08-19T04:41:27.490Z,100.00
2018-08-19T04:43:57.635Z,100.00
2018-08-19T04:46:27.818Z,100.00
2018-08-19T04:48:57.896Z,100.00
2018-08-19T04:51:28.320Z,100.00
2018-08-19T04:53:58.403Z,100.00
2018-08-19T04:56:28.518Z,100.00
2018-08-19T04:58:58.669Z,100.00
2018-08-19T05:01:28.805Z,100.00
2018-08-19T05:03:58.912Z,100.00
2018-08-19T05:06:29.037Z,100.00
2018-08-19T05:08:59.203Z,100.00
2018-08-19T05:11:29.407Z,100.00
2018-08-19T05:14:00.386Z,100.00
2018-08-19T05:16:30.516Z,99.41
2018-08-19T05:19:05.230Z,98.25
2018-08-19T05:21:35.440Z,97.31
2018-08-19T05:24:05.531Z,96.40
2018-08-19T05:26:35.600Z,95.94
2018-08-19T05:29:11.473Z,95.81
2018-08-19T05:31:48.074Z,94.80
2018-08-19T05:34:22.222Z,94.41
2018-08-19T05:36:52.615Z,94.24
2018-08-19T05:39:22.789Z,94.12
2018-08-19T05:42:08.087Z,94.01
2018-08-19T05:44:39.328Z,93.45
2018-08-19T05:47:15.727Z,92.70
2018-08-19T05:49:46.809Z,92.49
2018-08-19T05:52:19.958Z,91.62
2018-08-19T05:55:07.502Z,90.59
2018-08-19T05:57:37.678Z,85.68
2018-08-19T06:00:13.100Z,79.80
2018-08-19T06:02:43.863Z,74.69
2018-08-19T06:05:14.055Z,72.24
2018-08-19T06:07:44.279Z,70.53
2018-08-19T06:10:14.359Z,65.87
2018-08-19T06:12:44.495Z,63.46
2018-08-19T06:15:14.709Z,60.96
2018-08-19T06:17:44.909Z,59.55
2018-08-19T06:20:15.077Z,58.64
2018-08-19T06:22:45.298Z,59.03
2018-08-19T06:25:15.501Z,56.88
2018-08-19T06:27:47.629Z,57.42
2018-08-19T06:30:18.840Z,55.71
2018-08-19T06:32:49.082Z,54.27
2018-08-19T06:35:19.287Z,54.42
2018-08-19T06:37:49.567Z,53.12
2018-08-19T06:40:21.819Z,49.14
2018-08-19T06:42:52.033Z,49.76
2018-08-19T06:45:22.243Z,50.59
2018-08-19T06:47:52.476Z,49.50
2018-08-19T06:50:25.642Z,51.81
2018-08-19T06:52:56.640Z,49.39
2018-08-19T06:55:26.925Z,49.78
2018-08-19T06:57:59.028Z,48.24
2018-08-19T07:00:30.199Z,46.92
2018-08-19T07:03:03.209Z,46.79
2018-08-19T07:05:34.133Z,46.64
2018-08-19T07:08:04.421Z,45.81
2018-08-19T07:10:39.451Z,44.75
2018-08-19T07:13:13.276Z,44.01
2018-08-19T07:15:44.697Z,43.66
2018-08-19T07:18:16.205Z,43.71
2018-08-19T07:20:46.386Z,44.29
2018-08-19T07:23:16.589Z,44.68
2018-08-19T07:25:47.046Z,44.08
2018-08-19T07:28:18.337Z,44.11
2018-08-19T07:30:48.488Z,45.86
2018-08-19T07:33:18.638Z,45.81
2018-08-19T07:35:48.694Z,48.58
2018-08-19T07:38:18.806Z,48.53
2018-08-19T07:40:48.902Z,51.22
2018-08-19T07:43:19.012Z,47.79
2018-08-19T07:45:49.096Z,49.06
2018-08-19T07:48:19.253Z,47.55
2018-08-19T07:50:49.391Z,46.36
2018-08-19T07:53:19.535Z,45.30
2018-08-19T07:55:49.628Z,44.06
2018-08-19T07:58:34.855Z,42.79
2018-08-19T08:01:05.026Z,45.15
2018-08-19T08:03:35.179Z,48.65
2018-08-19T08:06:05.371Z,51.54
2018-08-19T08:08:35.526Z,50.89
2018-08-19T08:11:05.845Z,51.47
2018-08-19T08:13:35.996Z,52.91
2018-08-19T08:16:06.079Z,56.43
2018-08-19T08:18:36.302Z,57.62
2018-08-19T08:21:12.652Z,51.49
2018-08-19T08:23:43.485Z,47.69
2018-08-19T08:26:13.681Z,45.70
2018-08-19T08:28:53.739Z,44.20
2018-08-19T08:31:23.869Z,43.08
2018-08-19T08:33:54.978Z,43.60
2018-08-19T08:36:25.117Z,43.53
2018-08-19T08:38:55.245Z,42.95
2018-08-19T08:41:25.376Z,43.26
2018-08-19T08:43:55.430Z,42.54
2018-08-19T08:46:25.541Z,44.24
2018-08-19T08:48:55.957Z,42.23
2018-08-19T08:51:26.102Z,42.84
2018-08-19T08:53:56.563Z,42.84
2018-08-19T08:56:26.812Z,42.29
2018-08-19T08:58:57.066Z,39.80
2018-08-19T09:01:27.315Z,41.37
2018-08-19T09:03:57.533Z,42.41
2018-08-19T09:06:28.694Z,41.14
2018-08-19T09:08:59.227Z,43.81
2018-08-19T09:11:29.429Z,46.59
2018-08-19T09:13:59.665Z,47.06
2018-08-19T09:16:29.803Z,46.71
2018-08-19T09:19:00.062Z,47.04
2018-08-19T09:21:30.219Z,48.22
2018-08-19T09:24:00.321Z,48.94
2018-08-19T09:26:30.454Z,49.99
2018-08-19T09:29:00.575Z,50.42
2018-08-19T09:31:30.815Z,48.51
2018-08-19T09:34:00.926Z,49.22
2018-08-19T09:36:31.169Z,50.14
2018-08-19T09:39:01.425Z,49.04
2018-08-19T09:41:31.532Z,50.19
2018-08-19T09:44:01.631Z,50.99
2018-08-19T09:46:31.753Z,49.77
2018-08-19T09:49:01.951Z,49.97
2018-08-19T09:51:32.105Z,48.65
2018-08-19T09:54:02.254Z,46.88
2018-08-19T09:56:37.462Z,46.87
2018-08-19T09:59:07.566Z,46.97
2018-08-19T10:01:46.603Z,46.53
2018-08-19T10:04:21.746Z,48.13
2018-08-19T10:07:00.647Z,47.90
2018-08-19T10:09:31.419Z,48.25
2018-08-19T10:12:01.490Z,46.56
2018-08-19T10:14:31.626Z,46.90
2018-08-19T10:17:01.745Z,47.46
2018-08-19T10:19:31.980Z,46.84
2018-08-19T10:22:02.170Z,49.90
2018-08-19T10:24:33.467Z,48.15
2018-08-19T10:27:07.969Z,47.42
2018-08-19T10:29:38.244Z,46.64
2018-08-19T10:32:08.435Z,47.05
2018-08-19T10:34:38.551Z,47.18
2018-08-19T10:37:08.842Z,47.57
2018-08-19T10:39:39.049Z,47.17
2018-08-19T10:42:22.175Z,47.90
2018-08-19T10:44:53.379Z,47.94
2018-08-19T10:47:23.513Z,47.79
2018-08-19T10:49:59.722Z,49.08
2018-08-19T10:52:31.417Z,48.82
2018-08-19T10:55:02.489Z,47.85
2018-08-19T10:57:32.710Z,46.95
2018-08-19T11:00:02.908Z,47.21
2018-08-19T11:02:33.134Z,48.55
2018-08-19T11:05:03.330Z,48.48
2018-08-19T11:07:33.435Z,47.32
2018-08-19T11:10:26.364Z,48.26
2018-08-19T11:12:57.957Z,46.73
2018-08-19T11:15:42.763Z,46.80
2018-08-19T11:18:24.862Z,48.79
2018-08-19T11:20:59.423Z,49.19
2018-08-19T11:23:29.655Z,48.52
2018-08-19T11:26:00.024Z,47.53
2018-08-19T11:28:38.596Z,50.00
2018-08-19T11:31:17.049Z,49.51
2018-08-19T11:33:47.301Z,48.80
2018-08-19T11:36:17.692Z,47.21
2018-08-19T11:38:51.889Z,46.59
2018-08-19T11:41:22.166Z,45.88
2018-08-19T11:43:52.646Z,47.99
2018-08-19T11:46:22.881Z,49.21
2018-08-19T11:48:58.188Z,48.19
2018-08-19T11:51:44.927Z,46.61
2018-08-19T11:54:16.070Z,46.00
2018-08-19T11:56:59.407Z,46.30
2018-08-19T11:59:33.521Z,46.34
2018-08-19T12:02:03.815Z,46.76
2018-08-19T12:04:33.995Z,47.24
2018-08-19T12:07:04.367Z,48.06
2018-08-19T12:09:34.611Z,47.19
2018-08-19T12:12:05.369Z,46.74
2018-08-19T12:14:37.362Z,48.27
2018-08-19T12:17:11.376Z,47.42
2018-08-19T12:19:43.639Z,47.27
2018-08-19T12:22:13.821Z,44.87
2018-08-19T12:24:45.832Z,45.72
2018-08-19T12:27:18.312Z,45.56
2018-08-19T12:29:48.472Z,46.15
2018-08-19T12:32:24.578Z,45.46
2018-08-19T12:35:02.044Z,45.48
2018-08-19T12:37:33.444Z,45.28
2018-08-19T12:40:03.582Z,45.44
2018-08-19T12:42:38.929Z,45.69
2018-08-19T12:45:09.614Z,45.80
2018-08-19T12:47:39.806Z,46.12
2018-08-19T12:50:14.426Z,46.25
2018-08-19T12:52:44.764Z,45.90
2018-08-19T12:55:17.234Z,46.63
2018-08-19T12:57:51.587Z,45.39
2018-08-19T13:00:26.818Z,46.12
2018-08-19T13:02:57.136Z,45.02
2018-08-19T13:05:27.388Z,45.14
2018-08-19T13:07:57.607Z,45.82
2018-08-19T13:10:37.283Z,46.74
2018-08-19T13:13:07.777Z,45.32
2018-08-19T13:15:37.889Z,44.83
2018-08-19T13:18:08.115Z,44.83
2018-08-19T13:20:38.320Z,46.13
2018-08-19T13:23:08.767Z,44.68
2018-08-19T13:25:38.879Z,45.64
2018-08-19T13:28:09.116Z,46.56
2018-08-19T13:30:39.178Z,45.55
2018-08-19T13:33:09.360Z,44.41
2018-08-19T13:35:39.485Z,45.68
2018-08-19T13:38:09.752Z,43.61
2018-08-19T13:40:39.943Z,44.09
2018-08-19T13:43:10.125Z,45.20
2018-08-19T13:45:40.236Z,45.07
2018-08-19T13:48:10.690Z,45.13
2018-08-19T13:50:40.865Z,43.97
2018-08-19T13:53:11.015Z,44.75
2018-08-19T13:55:41.231Z,46.27
2018-08-19T13:58:11.495Z,45.68
2018-08-19T14:00:41.591Z,44.11
2018-08-19T14:03:11.731Z,43.55
2018-08-19T14:05:41.870Z,43.93
2018-08-19T14:08:12.042Z,43.86
2018-08-19T14:10:42.235Z,44.94
2018-08-19T14:13:12.430Z,43.46
2018-08-19T14:15:42.733Z,42.87
2018-08-19T14:18:12.973Z,43.83
2018-08-19T14:20:43.093Z,43.37
2018-08-19T14:23:13.230Z,43.78
2018-08-19T14:25:43.377Z,42.90
2018-08-19T14:28:13.544Z,43.87
2018-08-19T14:30:43.803Z,44.57
2018-08-19T14:33:13.950Z,43.73
2018-08-19T14:35:44.086Z,43.52
2018-08-19T14:38:14.353Z,43.36
2018-08-19T14:40:44.459Z,42.82
2018-08-19T14:43:14.677Z,43.07
2018-08-19T14:45:45.000Z,40.54
2018-08-19T14:48:15.110Z,40.41
2018-08-19T14:50:45.647Z,41.30
2018-08-19T14:53:15.791Z,41.55
2018-08-19T14:55:45.957Z,40.11
2018-08-19T14:58:16.179Z,40.58
2018-08-19T15:00:46.295Z,41.22
2018-08-19T15:03:16.456Z,41.56
2018-08-19T15:06:01.233Z,39.72
2018-08-19T15:08:32.129Z,39.15
2018-08-19T15:11:05.291Z,39.04
2018-08-19T15:13:35.838Z,38.77
2018-08-19T15:16:06.070Z,37.75
2018-08-19T15:18:36.295Z,37.86
2018-08-19T15:21:06.412Z,38.08
2018-08-19T15:23:36.592Z,38.00
2018-08-19T15:26:06.787Z,36.98
2018-08-19T15:28:39.203Z,36.93
2018-08-19T15:31:14.541Z,37.83
2018-08-19T15:33:44.710Z,38.90
2018-08-19T15:36:14.904Z,38.73
2018-08-19T15:38:45.017Z,38.58
2018-08-19T15:41:15.657Z,37.29
2018-08-19T15:43:45.811Z,37.78
2018-08-19T15:46:16.118Z,39.64
2018-08-19T15:48:51.143Z,39.92
2018-08-19T15:51:21.277Z,39.72
2018-08-19T15:53:51.438Z,38.21
2018-08-19T15:56:21.684Z,37.25
2018-08-19T15:58:51.888Z,37.14
2018-08-19T16:01:30.076Z,37.51
2018-08-19T16:04:06.142Z,36.99
2018-08-19T16:06:36.362Z,37.75
2018-08-19T16:09:10.706Z,38.57
2018-08-19T16:11:40.831Z,38.52
2018-08-19T16:14:17.839Z,37.89
2018-08-19T16:16:48.063Z,38.24
2018-08-19T16:19:18.399Z,39.59
2018-08-19T16:21:53.070Z,40.47
2018-08-19T16:24:23.464Z,41.38
2018-08-19T16:26:53.846Z,43.43
2018-08-19T16:29:24.133Z,44.16
2018-08-19T16:31:54.439Z,44.32
2018-08-19T16:34:24.501Z,45.16
2018-08-19T16:36:54.615Z,44.68
2018-08-19T16:39:24.858Z,45.26
2018-08-19T16:41:54.873Z,46.03
2018-08-19T16:44:25.105Z,47.01
2018-08-19T16:46:55.409Z,46.24
2018-08-19T16:49:25.582Z,47.58
2018-08-19T16:51:55.749Z,47.19
2018-08-19T16:54:25.989Z,47.80
2018-08-19T16:56:56.153Z,47.90
2018-08-19T16:59:26.298Z,48.03
2018-08-19T17:01:56.418Z,47.67
2018-08-19T17:04:26.710Z,47.92
2018-08-19T17:06:56.792Z,47.78
2018-08-19T17:09:27.014Z,47.74
2018-08-19T17:11:57.072Z,47.64
2018-08-19T17:14:27.237Z,48.82
2018-08-19T17:16:57.367Z,48.57
2018-08-19T17:19:27.532Z,49.45
2018-08-19T17:21:57.711Z,49.94
2018-08-19T17:24:27.883Z,49.88
2018-08-19T17:27:03.111Z,49.48
2018-08-19T17:29:33.339Z,50.64
2018-08-19T17:32:03.422Z,51.33
2018-08-19T17:34:33.573Z,51.53
2018-08-19T17:37:03.806Z,51.81
2018-08-19T17:39:33.919Z,51.91
2018-08-19T17:42:04.156Z,51.54
2018-08-19T17:44:34.338Z,52.20
2018-08-19T17:47:04.598Z,52.28
2018-08-19T17:49:36.031Z,52.33
2018-08-19T17:52:06.282Z,52.81
2018-08-19T17:54:36.417Z,53.91
2018-08-19T17:57:06.641Z,53.27
2018-08-19T17:59:36.907Z,54.35
2018-08-19T18:02:07.336Z,53.73
2018-08-19T18:04:42.605Z,53.78
2018-08-19T18:07:15.097Z,54.35
2018-08-19T18:09:49.393Z,55.14
2018-08-19T18:12:21.967Z,55.05
2018-08-19T18:14:52.200Z,56.62
2018-08-19T18:17:22.433Z,56.07
2018-08-19T18:19:52.635Z,57.42
2018-08-19T18:22:23.013Z,57.95
2018-08-19T18:25:03.100Z,58.28
2018-08-19T18:27:33.284Z,58.16
2018-08-19T18:30:03.424Z,59.54
2018-08-19T18:32:33.566Z,59.53
2018-08-19T18:35:03.745Z,59.94
2018-08-19T18:37:33.877Z,61.07
2018-08-19T18:40:04.141Z,61.58
2018-08-19T18:42:40.379Z,61.54
2018-08-19T18:45:12.965Z,62.59
2018-08-19T18:47:51.429Z,62.75
2018-08-19T18:50:25.555Z,64.01
2018-08-19T18:52:55.869Z,63.41
2018-08-19T18:55:26.182Z,64.43
2018-08-19T18:57:57.393Z,65.17
2018-08-19T19:00:28.295Z,65.85
2018-08-19T19:03:01.448Z,65.89
2018-08-19T19:05:41.665Z,67.38
2018-08-19T19:08:12.906Z,68.62
2018-08-19T19:11:06.050Z,68.96
2018-08-19T19:13:36.749Z,69.41
2018-08-19T19:16:06.977Z,70.08
2018-08-19T19:18:37.079Z,70.64
2018-08-19T19:21:07.575Z,71.04
2018-08-19T19:23:40.067Z,71.95
2018-08-19T19:26:10.912Z,72.02
2018-08-19T19:28:41.045Z,71.86
2018-08-19T19:31:17.363Z,71.84
2018-08-19T19:33:47.455Z,71.93
2018-08-19T19:36:20.223Z,72.33
2018-08-19T19:38:57.197Z,72.81
2018-08-19T19:41:31.740Z,73.07
2018-08-19T19:44:24.483Z,73.40
2018-08-19T19:46:55.042Z,73.03
2018-08-19T19:49:25.096Z,73.74
2018-08-19T19:52:03.934Z,73.09
2018-08-19T19:54:34.944Z,73.99
2018-08-19T19:57:05.058Z,74.03
2018-08-19T19:59:35.674Z,74.47
2018-08-19T20:02:05.879Z,73.42
2018-08-19T20:04:37.068Z,74.55
2018-08-19T20:07:07.192Z,74.12
2018-08-19T20:09:37.452Z,73.85
2018-08-19T20:12:14.325Z,74.55
2018-08-19T20:14:51.510Z,74.02
2018-08-19T20:17:22.260Z,73.56
2018-08-19T20:19:52.427Z,72.93
2018-08-19T20:22:22.716Z,73.39
2018-08-19T20:24:53.038Z,72.83
2018-08-19T20:27:23.193Z,74.25
2018-08-19T20:29:54.943Z,74.22
2018-08-19T20:32:25.143Z,74.83
2018-08-19T20:34:55.280Z,74.95
2018-08-19T20:37:27.184Z,76.21
2018-08-19T20:39:57.243Z,76.44
2018-08-19T20:42:27.385Z,76.95
2018-08-19T20:44:57.430Z,76.47
2018-08-19T20:47:27.527Z,76.87
2018-08-19T20:49:57.679Z,76.47
2018-08-19T20:52:45.512Z,76.58
2018-08-19T20:55:15.914Z,76.42
2018-08-19T20:57:46.505Z,76.10
2018-08-19T21:00:16.720Z,75.35
2018-08-19T21:02:46.864Z,76.97
2018-08-19T21:05:16.977Z,76.93
2018-08-19T21:07:47.129Z,76.75
2018-08-19T21:10:17.315Z,75.61
2018-08-19T21:12:47.449Z,76.65
2018-08-19T21:15:22.984Z,77.59
2018-08-19T21:17:53.113Z,77.60
2018-08-19T21:20:23.196Z,77.94
2018-08-19T21:22:54.399Z,78.87
2018-08-19T21:25:24.677Z,79.04
2018-08-19T21:27:54.784Z,79.85
2018-08-19T21:30:25.173Z,79.05
2018-08-19T21:32:56.345Z,79.48
2018-08-19T21:35:26.696Z,79.62
2018-08-19T21:37:56.824Z,80.03
2018-08-19T21:40:33.943Z,79.69
2018-08-19T21:43:04.055Z,79.72
2018-08-19T21:45:34.672Z,79.11
2018-08-19T21:48:05.149Z,79.44
2018-08-19T21:50:35.256Z,79.19
2018-08-19T21:53:09.204Z,78.72
2018-08-19T21:55:42.390Z,79.74
2018-08-19T21:58:12.605Z,78.88
2018-08-19T22:01:04.475Z,79.24
2018-08-19T22:03:39.797Z,78.79
2018-08-19T22:06:10.238Z,78.62
2018-08-19T22:08:40.307Z,77.55
2018-08-19T22:11:10.485Z,76.98
2018-08-19T22:13:40.630Z,77.10
2018-08-19T22:16:10.716Z,77.08
2018-08-19T22:18:40.918Z,77.76
2018-08-19T22:21:18.433Z,76.71
2018-08-19T22:23:49.817Z,77.44
2018-08-19T22:26:21.030Z,77.37
2018-08-19T22:29:10.763Z,77.62
2018-08-19T22:31:40.949Z,77.32
2018-08-19T22:34:11.106Z,75.91
2018-08-19T22:36:41.193Z,76.30
2018-08-19T22:39:11.526Z,76.78
2018-08-19T22:41:41.590Z,76.83
2018-08-19T22:44:11.726Z,76.96
2018-08-19T22:46:41.838Z,76.75
2018-08-19T22:49:11.977Z,77.49
2018-08-19T22:51:42.196Z,76.49
2018-08-19T22:54:12.339Z,76.25
2018-08-19T22:56:42.404Z,76.46
2018-08-19T22:59:12.483Z,76.57
2018-08-19T23:01:49.290Z,75.89
2018-08-19T23:04:19.466Z,76.53
2018-08-19T23:06:49.576Z,76.89
2018-08-19T23:09:19.690Z,77.29
2018-08-19T23:11:49.747Z,76.75
2018-08-19T23:14:36.502Z,77.78
2018-08-19T23:17:09.447Z,78.66
2018-08-19T23:19:39.650Z,79.07
2018-08-19T23:22:09.785Z,78.40
2018-08-19T23:24:39.948Z,78.32
2018-08-19T23:27:10.021Z,78.90
2018-08-19T23:29:40.161Z,78.53
2018-08-19T23:32:10.394Z,78.74
2018-08-19T23:34:40.546Z,79.07
2018-08-19T23:37:17.279Z,79.25
2018-08-19T23:39:47.371Z,79.57
2018-08-19T23:42:17.409Z,79.99
2018-08-19T23:44:47.484Z,79.93
2018-08-19T23:47:18.233Z,80.66
2018-08-19T23:49:48.322Z,81.33
2018-08-19T23:52:18.410Z,81.30
2018-08-19T23:54:48.618Z,81.76
2018-08-19T23:57:18.785Z,82.36
2018-08-19T23:59:48.921Z,81.82
